Terminal Aerodrome Forecast
Issued by NWS

Home | Current Version | Previous Version | Graphics & Text | Print | Product List | Glossary Off
Versions: 1 2 3 4 5 6 7 8 9 10 11 12 13 14 15 16 17 18 19 20 21 22 23 24

912
FTUS42 KMHX 252131 AAA
TAFOAJ
TAF AMD
KOAJ 252131Z 2522/2618 26009KT P6SM SCT035 BKN060
     FM260600 VRB03KT 6SM -SHRA SCT025 BKN050
     FM261100 VRB04KT 5SM -SHRA SCT010 OVC025
     FM261500 36005KT 5SM -SHRA OVC008
      AMD LTD TO CLD VIS AND WIND=

USA.gov is the U.S. government's official web portal to all federal, state and local government web resources and services.